Time;durP1;ratioP1;P1;durP2;ratioP2;P2;SDS_P1;SDS_P2;PMS_P1;PMS_P2;Temp;Humidity;BMP_temperature;BMP_pressure;BME280_temperature;BME280_humidity;BME280_pressure;Samples;Min_cycle;Max_cycle;Signal;HPM_P1;HPM_P2
2024/01/16 00:00:31;;;;;;;2.47;0.98;;;;;;;18.57;41.21;100798.09;4974241;28;96826;-86
2024/01/16 00:02:57;;;;;;;3.85;1.05;;;;;;;18.56;41.00;100796.34;4996315;28;96815;-85
2024/01/16 00:05:23;;;;;;;2.13;1.35;;;;;;;18.58;40.98;100796.31;4991071;28;98557;-85
2024/01/16 00:07:48;;;;;;;2.78;1.45;;;;;;;18.57;41.02;100797.19;4972446;28;96926;-85
2024/01/16 00:10:14;;;;;;;2.17;0.98;;;;;;;18.57;40.84;100795.44;4985886;28;97068;-85
2024/01/16 00:12:40;;;;;;;2.15;1.42;;;;;;;18.58;41.03;100796.31;5005167;28;98106;-85
2024/01/16 00:15:06;;;;;;;2.22;1.05;;;;;;;18.57;40.99;100799.84;4986092;28;97796;-85
2024/01/16 00:17:31;;;;;;;2.33;0.95;;;;;;;18.57;40.90;100791.91;5011646;27;96906;-85
2024/01/16 00:20:00;;;;;;;3.50;0.90;;;;;;;18.56;40.67;100791.03;4989200;28;97029;-85
2024/01/16 00:22:26;;;;;;;4.60;1.15;;;;;;;18.58;41.06;100798.94;4987459;28;96858;-86
2024/01/16 00:24:52;;;;;;;4.05;1.73;;;;;;;18.58;40.58;100801.59;4989655;28;99671;-86
2024/01/16 00:27:17;;;;;;;2.90;1.50;;;;;;;18.56;41.11;100796.34;4958344;28;117249;-85
2024/01/16 00:29:42;;;;;;;3.47;1.15;;;;;;;18.57;41.28;100798.09;4986479;28;96757;-85
2024/01/16 00:32:08;;;;;;;2.92;0.93;;;;;;;18.57;40.92;100798.09;4983430;28;114369;-86
2024/01/16 00:34:33;;;;;;;1.90;1.05;;;;;;;18.56;40.98;100804.25;4988220;28;97952;-86
2024/01/16 00:36:59;;;;;;;2.85;0.73;;;;;;;18.57;41.17;100805.13;5003145;28;96712;-85
2024/01/16 00:39:24;;;;;;;2.58;0.95;;;;;;;18.56;41.00;100798.97;5020133;28;97132;-86
2024/01/16 00:41:50;;;;;;;1.42;0.73;;;;;;;18.56;41.04;100804.25;4987782;28;108414;-86
2024/01/16 00:44:15;;;;;;;2.00;1.10;;;;;;;18.56;41.07;100801.63;4983676;28;127201;-85
2024/01/16 00:46:40;;;;;;;2.20;1.20;;;;;;;18.56;40.91;100806.91;4988620;28;116131;-86
2024/01/16 00:49:07;;;;;;;3.50;1.50;;;;;;;18.55;40.82;100805.16;4988370;28;96815;-86
2024/01/16 00:51:33;;;;;;;2.80;1.13;;;;;;;18.56;40.87;100814.81;4989146;28;96913;-86
2024/01/16 00:53:58;;;;;;;2.00;1.45;;;;;;;18.56;40.83;100809.53;4971718;28;96935;-86
2024/01/16 00:56:24;;;;;;;1.40;0.63;;;;;;;18.56;40.79;100808.69;5005079;28;100486;-85
2024/01/16 00:58:49;;;;;;;4.28;1.15;;;;;;;18.56;40.92;100811.31;4989027;28;96887;-86
2024/01/16 01:01:15;;;;;;;1.65;0.73;;;;;;;18.56;40.94;100811.31;4955428;28;97991;-86
2024/01/16 01:03:40;;;;;;;3.00;1.50;;;;;;;18.56;41.06;100817.47;4988495;28;98140;-85
2024/01/16 01:06:06;;;;;;;1.40;0.73;;;;;;;18.56;40.89;100811.31;5002063;28;105148;-85
2024/01/16 01:08:31;;;;;;;2.22;1.30;;;;;;;18.56;40.85;100819.25;4964434;28;96822;-86
2024/01/16 01:10:56;;;;;;;3.75;1.02;;;;;;;18.56;41.05;100827.16;4989538;28;126818;-85
2024/01/16 01:13:22;;;;;;;2.03;0.88;;;;;;;18.55;40.95;100822.78;4982828;28;106697;-85
2024/01/16 01:15:47;;;;;;;1.48;0.77;;;;;;;18.55;40.91;100823.63;4966303;28;96853;-86
2024/01/16 01:18:13;;;;;;;1.88;1.00;;;;;;;18.55;40.71;100823.63;4996572;28;96787;-86
2024/01/16 01:20:38;;;;;;;1.65;0.63;;;;;;;18.54;40.68;100819.28;4983227;28;97481;-86
2024/01/16 01:23:04;;;;;;;1.42;0.73;;;;;;;18.55;40.85;100822.78;4982094;28;96847;-86
2024/01/16 01:25:29;;;;;;;1.75;1.20;;;;;;;18.54;40.71;100824.56;4981132;28;96722;-86
2024/01/16 01:27:55;;;;;;;1.35;0.60;;;;;;;18.55;40.70;100830.69;4988994;28;96982;-86
2024/01/16 01:30:20;;;;;;;1.48;0.85;;;;;;;18.55;40.88;100828.06;4973232;28;127055;-85
2024/01/16 01:32:45;;;;;;;2.15;1.20;;;;;;;18.54;40.75;100832.47;4962065;28;123200;-86
2024/01/16 01:35:11;;;;;;;1.85;1.27;;;;;;;18.55;40.67;100836.84;4979872;28;96786;-85
2024/01/16 01:37:38;;;;;;;2.35;1.30;;;;;;;18.55;40.98;100830.69;4969342;28;97264;-85
2024/01/16 01:40:04;;;;;;;1.48;0.60;;;;;;;18.54;40.66;100826.31;4982741;28;98623;-85
2024/01/16 01:42:29;;;;;;;1.88;0.80;;;;;;;18.55;40.54;100825.41;4965253;28;97412;-85
2024/01/16 01:44:55;;;;;;;2.53;1.17;;;;;;;18.54;40.82;100829.84;4966943;28;96805;-85
2024/01/16 01:47:21;;;;;;;1.60;0.98;;;;;;;18.54;40.72;100834.22;5004125;28;96783;-85
2024/01/16 01:49:46;;;;;;;1.67;1.23;;;;;;;18.53;40.71;100833.38;4983833;28;98031;-85
2024/01/16 01:52:12;;;;;;;3.53;1.23;;;;;;;18.55;40.78;100833.34;4968070;28;97548;-86
2024/01/16 01:54:38;;;;;;;3.58;1.10;;;;;;;18.54;40.85;100832.47;4967833;28;97024;-85
2024/01/16 01:57:05;;;;;;;1.85;0.60;;;;;;;18.54;40.97;100827.19;4993211;28;97656;-87
2024/01/16 01:59:31;;;;;;;2.08;0.52;;;;;;;18.55;40.89;100833.34;4968442;28;98360;-86
2024/01/16 02:01:57;;;;;;;1.88;0.80;;;;;;;18.54;40.82;100828.94;4972881;28;98116;-85
2024/01/16 02:04:25;;;;;;;1.90;1.02;;;;;;;18.54;40.58;100827.19;4983783;28;97394;-85
2024/01/16 02:06:50;;;;;;;2.15;1.40;;;;;;;18.55;40.55;100831.56;4989129;28;97120;-85
2024/01/16 02:09:15;;;;;;;1.63;1.17;;;;;;;18.53;40.78;100836.00;4972935;28;97787;-85
2024/01/16 02:11:42;;;;;;;2.05;0.90;;;;;;;18.55;40.41;100839.47;4963777;28;99130;-85
2024/01/16 02:14:07;;;;;;;1.77;0.80;;;;;;;18.55;40.52;100834.19;4968645;28;96868;-85
2024/01/16 02:16:41;;;;;;;1.77;0.75;;;;;;;18.55;40.66;100838.63;5005964;27;97170;-86
2024/01/16 02:19:07;;;;;;;1.77;1.00;;;;;;;18.54;40.85;100844.78;4978858;28;98182;-86
2024/01/16 02:21:38;;;;;;;1.80;0.90;;;;;;;18.55;40.55;100842.13;4986786;28;98057;-86
2024/01/16 02:24:05;;;;;;;2.35;1.02;;;;;;;18.55;40.54;100843.91;4977451;28;96989;-86
2024/01/16 02:26:31;;;;;;;0.93;0.57;;;;;;;18.54;40.46;100843.03;4970230;28;97001;-85
2024/01/16 02:28:57;;;;;;;2.13;1.23;;;;;;;18.54;40.76;100842.16;5005564;27;98824;-85
2024/01/16 02:31:22;;;;;;;1.55;1.00;;;;;;;18.55;40.68;100841.25;5000408;28;99221;-85
2024/01/16 02:33:48;;;;;;;1.77;1.00;;;;;;;18.54;40.53;100840.41;4981034;28;96957;-85
2024/01/16 02:36:13;;;;;;;1.90;1.17;;;;;;;18.54;40.35;100847.44;4982575;28;101000;-86
2024/01/16 02:38:39;;;;;;;1.92;0.80;;;;;;;18.54;40.65;100844.78;4986890;28;96868;-85
2024/01/16 02:41:05;;;;;;;1.65;0.80;;;;;;;18.53;40.62;100846.56;5002216;28;97830;-86
2024/01/16 02:43:31;;;;;;;1.50;1.00;;;;;;;18.54;40.51;100850.06;4977586;28;96613;-85
2024/01/16 02:45:57;;;;;;;1.63;1.00;;;;;;;18.53;40.54;100854.50;4984567;28;97272;-85
2024/01/16 02:48:23;;;;;;;1.30;0.63;;;;;;;18.54;40.58;100847.44;4976390;28;98359;-86
2024/01/16 02:50:48;;;;;;;3.15;0.98;;;;;;;18.53;40.68;100851.84;4991160;28;97815;-86
2024/01/16 02:53:14;;;;;;;2.45;0.77;;;;;;;18.54;40.78;100852.72;4979064;28;97197;-86
2024/01/16 02:55:39;;;;;;;2.13;0.98;;;;;;;18.53;40.71;100854.50;4984523;28;97041;-85
2024/01/16 02:58:05;;;;;;;1.33;0.88;;;;;;;18.54;40.57;100852.72;4977803;28;119072;-86
2024/01/16 03:00:30;;;;;;;1.48;0.70;;;;;;;18.53;40.54;100861.56;4955721;28;97889;-85
2024/01/16 03:02:56;;;;;;;2.20;0.82;;;;;;;18.53;40.31;100859.78;5003978;28;96811;-85
2024/01/16 03:05:21;;;;;;;2.20;0.65;;;;;;;18.53;40.61;100853.63;4984306;28;96861;-86
2024/01/16 03:07:46;;;;;;;1.48;0.98;;;;;;;18.53;40.45;100861.56;4984988;28;98012;-85
2024/01/16 03:10:12;;;;;;;1.27;0.73;;;;;;;18.53;40.41;100861.56;5002390;28;127325;-86
2024/01/16 03:12:37;;;;;;;1.30;0.73;;;;;;;18.53;40.69;100869.47;4976452;28;96917;-86
2024/01/16 03:15:03;;;;;;;1.67;1.20;;;;;;;18.52;40.20;100865.97;5002109;28;96907;-86
2024/01/16 03:17:29;;;;;;;1.88;0.73;;;;;;;18.53;40.61;100867.69;5001111;28;97834;-86
2024/01/16 03:19:54;;;;;;;1.38;0.43;;;;;;;18.53;40.69;100866.84;4984102;28;127968;-86
2024/01/16 03:22:19;;;;;;;1.50;1.20;;;;;;;18.52;40.61;100868.63;4987347;28;96822;-86
2024/01/16 03:24:45;;;;;;;1.08;0.85;;;;;;;18.52;40.60;100865.97;4979023;28;97272;-86
2024/01/16 03:27:11;;;;;;;1.95;1.00;;;;;;;18.51;40.56;100860.72;5002297;28;98009;-85
2024/01/16 03:29:36;;;;;;;1.38;0.75;;;;;;;18.52;40.62;100863.34;4997236;28;125075;-86
2024/01/16 03:32:02;;;;;;;2.00;1.45;;;;;;;18.53;40.53;100866.84;5002579;28;96895;-85
2024/01/16 03:34:30;;;;;;;1.73;1.00;;;;;;;18.52;40.63;100863.34;4981539;28;96873;-86
2024/01/16 03:36:55;;;;;;;1.20;0.80;;;;;;;18.52;40.49;100863.34;4972805;28;97036;-85
2024/01/16 03:39:20;;;;;;;1.50;0.85;;;;;;;18.52;40.55;100855.41;5016399;28;99826;-86
2024/01/16 03:41:46;;;;;;;0.82;0.55;;;;;;;18.53;40.43;100848.34;4983156;28;96925;-85
2024/01/16 03:44:11;;;;;;;2.47;1.10;;;;;;;18.53;40.50;100853.63;4976392;28;96921;-85
2024/01/16 03:46:36;;;;;;;1.65;1.35;;;;;;;18.53;40.13;100851.00;4986964;28;122471;-86
2024/01/16 03:49:02;;;;;;;1.58;0.98;;;;;;;18.53;40.11;100848.34;4985081;28;128676;-85
2024/01/16 03:51:27;;;;;;;1.52;0.90;;;;;;;18.52;40.24;100842.22;4981927;28;97043;-87
2024/01/16 03:53:52;;;;;;;1.33;0.90;;;;;;;18.52;40.42;100839.56;5009879;27;110492;-85
2024/01/16 03:56:18;;;;;;;1.10;0.65;;;;;;;18.53;40.43;100845.72;4979554;28;125763;-85
2024/01/16 03:58:43;;;;;;;1.70;1.15;;;;;;;18.52;40.18;100836.94;4983724;28;97197;-86
2024/01/16 04:01:09;;;;;;;1.88;1.15;;;;;;;18.52;40.21;100844.84;4994146;28;117720;-87
2024/01/16 04:03:35;;;;;;;1.13;0.90;;;;;;;18.53;40.25;100837.78;4978963;28;117551;-86
2024/01/16 04:06:00;;;;;;;2.15;1.38;;;;;;;18.53;40.11;100836.00;4970418;28;96802;-85
2024/01/16 04:08:26;;;;;;;1.13;0.43;;;;;;;18.52;40.12;100839.56;4980782;28;99077;-85
2024/01/16 04:10:51;;;;;;;1.63;0.98;;;;;;;18.53;40.33;100828.09;4987718;28;97508;-85
2024/01/16 04:13:16;;;;;;;0.95;0.70;;;;;;;18.53;40.59;100819.31;4994168;28;118408;-85
2024/01/16 04:15:43;;;;;;;2.20;1.02;;;;;;;18.53;40.27;100828.09;4970214;28;100547;-85
2024/01/16 04:18:08;;;;;;;1.00;0.50;;;;;;;18.53;40.21;100827.22;4987525;28;115529;-85
2024/01/16 04:20:33;;;;;;;1.88;1.20;;;;;;;18.52;40.25;100821.09;4984785;28;116750;-85
2024/01/16 04:22:59;;;;;;;1.38;0.90;;;;;;;18.52;40.29;100818.44;4989654;28;97363;-86
2024/01/16 04:25:24;;;;;;;1.27;0.88;;;;;;;18.52;40.31;100823.72;4991869;28;97372;-87
2024/01/16 04:27:50;;;;;;;1.02;0.60;;;;;;;18.52;40.55;100823.72;4963173;28;96828;-85
2024/01/16 04:30:16;;;;;;;1.63;1.20;;;;;;;18.53;40.49;100827.22;5002037;28;96895;-85
2024/01/16 04:32:41;;;;;;;1.30;1.00;;;;;;;18.52;40.07;100828.09;4982858;28;96871;-85
2024/01/16 04:35:07;;;;;;;1.75;1.00;;;;;;;18.52;40.19;100820.19;5000586;28;96883;-85
2024/01/16 04:37:32;;;;;;;0.88;0.63;;;;;;;18.52;40.15;100820.19;4979617;28;97496;-85
2024/01/16 04:39:59;;;;;;;1.50;0.82;;;;;;;18.53;40.21;100824.59;4983112;28;96742;-85
2024/01/16 04:42:25;;;;;;;0.80;0.52;;;;;;;18.52;40.24;100822.81;4982309;28;97021;-85
2024/01/16 04:44:50;;;;;;;0.93;0.82;;;;;;;18.52;40.21;100823.72;4978348;28;98202;-85
2024/01/16 04:47:16;;;;;;;2.45;1.10;;;;;;;18.52;40.34;100825.47;4968522;28;97405;-85
2024/01/16 04:49:42;;;;;;;1.13;0.73;;;;;;;18.52;40.41;100836.03;4984502;28;115862;-85
2024/01/16 04:52:07;;;;;;;1.52;1.00;;;;;;;18.51;40.11;100824.59;4968998;28;97073;-85
2024/01/16 04:54:33;;;;;;;1.00;0.90;;;;;;;18.52;40.17;100833.41;4968575;28;98019;-86
2024/01/16 04:56:58;;;;;;;0.70;0.43;;;;;;;18.52;40.26;100836.94;4990022;28;97001;-85
2024/01/16 04:59:24;;;;;;;1.15;0.73;;;;;;;18.53;40.27;100832.50;4985283;28;96747;-85
2024/01/16 05:01:49;;;;;;;3.15;0.85;;;;;;;18.51;40.40;100827.25;4972134;28;96953;-86
2024/01/16 05:04:14;;;;;;;1.52;0.75;;;;;;;18.52;40.04;100828.09;4979186;28;121332;-86
2024/01/16 05:06:40;;;;;;;1.00;0.52;;;;;;;18.52;40.28;100828.09;4976607;28;127248;-85
2024/01/16 05:09:05;;;;;;;1.42;0.98;;;;;;;18.52;39.92;100830.75;4974899;28;110571;-85
2024/01/16 05:11:30;;;;;;;0.68;0.52;;;;;;;18.51;40.13;100829.88;4978016;28;97454;-85
2024/01/16 05:13:57;;;;;;;1.17;0.80;;;;;;;18.51;40.18;100829.88;4985528;28;126904;-86
2024/01/16 05:16:27;;;;;;;1.05;0.82;;;;;;;18.51;39.95;100826.38;4967242;28;98157;-84
2024/01/16 05:18:53;;;;;;;1.17;0.65;;;;;;;18.52;40.25;100820.19;4997387;28;98292;-85
2024/01/16 05:21:20;;;;;;;1.20;0.90;;;;;;;18.52;40.04;100813.16;4987712;28;97290;-85
2024/01/16 05:23:45;;;;;;;0.70;0.45;;;;;;;18.52;40.14;100801.69;4981637;28;98314;-84
2024/01/16 05:26:10;;;;;;;1.65;1.20;;;;;;;18.52;39.95;100812.25;4984572;28;110063;-85
2024/01/16 05:28:36;;;;;;;2.25;1.13;;;;;;;18.52;40.19;100801.69;4989649;28;97328;-86
2024/01/16 05:31:01;;;;;;;1.42;0.77;;;;;;;18.52;39.86;100799.06;4972141;28;115514;-84
2024/01/16 05:33:27;;;;;;;1.85;1.02;;;;;;;18.51;40.23;100792.06;4971389;28;97729;-85
2024/01/16 05:35:53;;;;;;;2.00;0.93;;;;;;;18.51;40.13;100797.34;4988564;28;97518;-85
2024/01/16 05:38:18;;;;;;;1.30;0.90;;;;;;;18.51;39.85;100799.97;4987956;28;113639;-85
2024/01/16 05:40:43;;;;;;;1.27;0.52;;;;;;;18.51;40.11;100797.34;5000082;28;101047;-85
2024/01/16 05:43:09;;;;;;;1.73;0.90;;;;;;;18.51;40.05;100792.06;4980980;28;97560;-85
2024/01/16 05:45:34;;;;;;;2.00;0.73;;;;;;;18.52;40.05;100792.03;5002537;28;120453;-85
2024/01/16 05:48:00;;;;;;;1.00;0.90;;;;;;;18.51;40.13;100790.28;4989325;28;96647;-83
2024/01/16 05:50:25;;;;;;;1.40;0.70;;;;;;;18.52;39.98;100799.06;4979696;28;96593;-85
2024/01/16 05:52:51;;;;;;;1.02;0.55;;;;;;;18.52;40.24;100788.50;5006109;28;96749;-84
2024/01/16 05:55:17;;;;;;;2.33;1.02;;;;;;;18.52;40.21;100785.84;4988132;28;125728;-85
2024/01/16 05:57:43;;;;;;;1.05;0.95;;;;;;;18.51;40.05;100782.34;4997682;28;97194;-85
2024/01/16 06:00:09;;;;;;;2.63;1.00;;;;;;;18.51;40.17;100785.00;4984809;28;96954;-85
2024/01/16 06:02:35;;;;;;;1.58;0.90;;;;;;;18.51;40.13;100781.50;4987817;28;98310;-85
2024/01/16 06:05:02;;;;;;;1.48;1.30;;;;;;;18.51;40.08;100787.63;4984813;28;97783;-85
2024/01/16 06:07:28;;;;;;;1.30;0.88;;;;;;;18.51;40.12;100781.50;4983186;28;96927;-85
2024/01/16 06:09:53;;;;;;;2.72;0.85;;;;;;;18.52;40.06;100785.84;4989720;28;96929;-85
2024/01/16 06:12:18;;;;;;;1.05;0.70;;;;;;;18.52;39.70;100785.84;4980350;28;96931;-85
2024/01/16 06:14:44;;;;;;;1.92;1.00;;;;;;;18.50;39.91;100783.25;4988571;28;125380;-84
2024/01/16 06:17:09;;;;;;;1.35;0.65;;;;;;;18.51;39.80;100786.78;4988939;28;117415;-84
2024/01/16 06:19:34;;;;;;;2.13;1.15;;;;;;;18.50;39.77;100785.88;4985828;28;98139;-84
2024/01/16 06:22:00;;;;;;;1.98;0.70;;;;;;;18.51;39.67;100789.41;5005913;28;97056;-83
2024/01/16 06:24:26;;;;;;;1.48;1.00;;;;;;;18.51;39.73;100787.63;4981522;28;122585;-84
2024/01/16 06:26:51;;;;;;;1.38;0.52;;;;;;;18.52;39.68;100783.22;4988288;28;96840;-84
2024/01/16 06:29:17;;;;;;;1.45;0.82;;;;;;;18.51;39.67;100785.00;4991928;28;96763;-84
2024/01/16 06:31:42;;;;;;;1.20;0.57;;;;;;;18.52;39.74;100784.09;4990379;28;98924;-83
2024/01/16 06:34:08;;;;;;;1.13;0.57;;;;;;;18.51;39.84;100781.50;5001963;28;126121;-84
2024/01/16 06:36:34;;;;;;;1.55;0.80;;;;;;;18.51;39.75;100785.00;4981682;28;97214;-84
2024/01/16 06:38:59;;;;;;;1.70;1.15;;;;;;;18.50;39.91;100791.16;5001367;28;97164;-84
2024/01/16 06:41:24;;;;;;;0.80;0.60;;;;;;;18.51;40.12;100789.41;4988117;28;100211;-83
2024/01/16 06:43:50;;;;;;;1.13;0.65;;;;;;;18.51;39.74;100789.41;4985805;28;99490;-84
2024/01/16 06:46:15;;;;;;;1.25;0.70;;;;;;;18.49;39.68;100778.88;4978516;28;119778;-83
2024/01/16 06:48:40;;;;;;;1.20;0.70;;;;;;;18.50;39.92;100780.59;4975521;28;97387;-84
2024/01/16 06:51:07;;;;;;;1.45;0.80;;;;;;;18.51;39.99;100781.50;4975116;28;126656;-83
2024/01/16 06:53:33;;;;;;;0.75;0.55;;;;;;;18.50;39.59;100785.88;4996860;28;99321;-83
2024/01/16 06:55:58;;;;;;;0.60;0.40;;;;;;;18.50;39.92;100791.16;5002513;28;97999;-84
2024/01/16 06:58:24;;;;;;;0.75;0.50;;;;;;;18.50;39.77;100790.31;4972225;28;111422;-84
2024/01/16 07:00:49;;;;;;;2.20;0.90;;;;;;;18.50;39.94;100788.53;4990788;28;99468;-83
2024/01/16 07:03:15;;;;;;;1.08;0.60;;;;;;;18.50;39.71;100785.88;4969466;28;99587;-83
2024/01/16 07:05:43;;;;;;;1.45;1.02;;;;;;;18.51;39.51;100794.69;4992145;28;97302;-84
2024/01/16 07:08:09;;;;;;;1.23;0.63;;;;;;;18.51;39.58;100794.69;4975268;28;97419;-84
2024/01/16 07:10:35;;;;;;;1.42;0.73;;;;;;;18.51;39.67;100789.41;4986725;28;98160;-83
2024/01/16 07:13:01;;;;;;;1.33;0.63;;;;;;;18.49;39.69;100789.44;4962179;28;96855;-84
2024/01/16 07:15:26;;;;;;;1.55;1.05;;;;;;;18.50;39.81;100795.59;4995568;28;96985;-86
2024/01/16 07:17:52;;;;;;;2.17;1.15;;;;;;;18.50;39.54;100800.88;5012028;27;96760;-85
2024/01/16 07:20:17;;;;;;;1.42;0.93;;;;;;;18.50;39.91;100801.72;4981443;28;99747;-86
2024/01/16 07:22:43;;;;;;;1.30;0.52;;;;;;;18.51;39.71;100805.25;4994249;28;120438;-85
2024/01/16 07:25:09;;;;;;;1.30;0.60;;;;;;;18.50;39.79;100809.66;4963197;28;96703;-86
2024/01/16 07:27:35;;;;;;;1.50;1.05;;;;;;;18.51;39.67;100810.53;4984225;28;96866;-85
2024/01/16 07:30:01;;;;;;;0.40;0.40;;;;;;;18.51;39.73;100813.19;4981249;28;99578;-85
2024/01/16 07:32:26;;;;;;;1.48;1.25;;;;;;;18.51;39.57;100807.91;4989663;28;97773;-86
2024/01/16 07:34:52;;;;;;;2.03;0.82;;;;;;;18.51;39.49;100810.53;4987204;28;119219;-85
2024/01/16 07:37:18;;;;;;;1.50;0.63;;;;;;;18.50;39.60;100809.66;4971841;28;96575;-85
2024/01/16 07:39:43;;;;;;;1.27;0.73;;;;;;;18.50;39.52;100809.66;4984599;28;97913;-85
2024/01/16 07:42:09;;;;;;;2.08;0.73;;;;;;;18.51;39.60;100810.53;4983431;28;103266;-85
2024/01/16 07:44:34;;;;;;;1.70;1.10;;;;;;;18.50;39.39;100808.78;4984838;28;97505;-84
2024/01/16 07:47:00;;;;;;;1.67;0.93;;;;;;;18.50;39.66;100808.78;4977521;28;96824;-84
2024/01/16 07:49:26;;;;;;;0.73;0.43;;;;;;;18.50;39.34;100814.06;4978772;28;126755;-84
2024/01/16 07:51:51;;;;;;;2.65;0.88;;;;;;;18.51;39.68;100813.19;4979870;28;97514;-85
2024/01/16 07:54:17;;;;;;;2.05;1.00;;;;;;;18.50;39.75;100811.44;4981577;28;97941;-84
2024/01/16 07:56:42;;;;;;;1.88;1.00;;;;;;;18.49;39.72;100813.22;4966298;28;96965;-84
2024/01/16 07:59:08;;;;;;;1.05;0.75;;;;;;;18.50;39.58;100816.72;5000146;28;97041;-82
2024/01/16 08:01:34;;;;;;;2.13;1.52;;;;;;;18.50;39.47;100822.84;4990150;28;97344;-84
2024/01/16 08:03:59;;;;;;;2.63;1.15;;;;;;;18.50;39.52;100819.34;4997480;28;98164;-83
2024/01/16 08:06:25;;;;;;;1.45;0.68;;;;;;;18.50;39.50;100824.63;4987566;28;102413;-84
2024/01/16 08:08:50;;;;;;;2.08;0.70;;;;;;;18.50;39.57;100817.56;4987855;28;97802;-83
2024/01/16 08:11:17;;;;;;;1.08;0.50;;;;;;;18.49;39.39;100823.78;4983976;28;126303;-84
2024/01/16 08:13:43;;;;;;;1.40;1.00;;;;;;;18.49;39.64;100826.41;4985049;28;97636;-84
2024/01/16 08:16:09;;;;;;;1.67;0.90;;;;;;;18.49;39.59;100818.50;5012104;27;97239;-84
2024/01/16 08:18:34;;;;;;;1.67;1.25;;;;;;;18.50;39.66;100827.28;4998646;28;99506;-84
2024/01/16 08:21:00;;;;;;;2.50;1.00;;;;;;;18.50;39.52;100832.56;4980581;28;102971;-85
2024/01/16 08:23:25;;;;;;;2.75;1.08;;;;;;;18.50;39.54;100833.41;4997559;28;98322;-86
2024/01/16 08:25:51;;;;;;;1.42;1.10;;;;;;;18.49;39.59;100831.69;4971173;28;106029;-84
2024/01/16 08:28:17;;;;;;;1.55;0.73;;;;;;;18.51;39.50;100829.03;4984468;28;97045;-84
2024/01/16 08:30:43;;;;;;;2.45;0.93;;;;;;;18.51;39.68;100829.03;4989535;28;96781;-84
2024/01/16 08:33:08;;;;;;;1.48;0.63;;;;;;;18.51;39.46;100823.75;4970382;28;96979;-84
2024/01/16 08:35:33;;;;;;;1.33;0.57;;;;;;;18.50;39.73;100827.28;4987288;28;96881;-85
2024/01/16 08:37:59;;;;;;;2.35;0.70;;;;;;;18.51;39.37;100826.38;4968393;28;97535;-83
2024/01/16 08:40:25;;;;;;;2.20;0.63;;;;;;;18.51;39.57;100831.69;4984470;28;97779;-85
2024/01/16 08:42:54;;;;;;;1.40;0.68;;;;;;;18.51;39.38;100835.16;4974621;28;96774;-84
2024/01/16 08:45:20;;;;;;;1.42;0.93;;;;;;;18.51;39.52;100835.16;4988294;28;96994;-86
2024/01/16 08:47:46;;;;;;;2.38;0.73;;;;;;;18.51;39.50;100843.09;4991607;28;97550;-86
2024/01/16 08:50:12;;;;;;;2.83;1.00;;;;;;;18.51;39.59;100837.81;4976216;28;96736;-88
2024/01/16 08:52:37;;;;;;;1.55;0.63;;;;;;;18.51;39.44;100831.69;4969981;28;96817;-87
2024/01/16 08:55:03;;;;;;;2.58;0.73;;;;;;;18.51;39.32;100835.16;5007253;28;102939;-87
2024/01/16 08:57:29;;;;;;;2.70;1.02;;;;;;;18.50;39.44;100822.00;4995446;28;99503;-86
2024/01/16 08:59:54;;;;;;;2.47;1.15;;;;;;;18.51;39.74;100835.16;4987191;28;98393;-86
2024/01/16 09:02:20;;;;;;;2.08;0.70;;;;;;;18.51;39.31;100834.31;4978178;28;97646;-86
2024/01/16 09:04:47;;;;;;;1.50;0.90;;;;;;;18.51;39.66;100829.03;4972473;28;97576;-84
2024/01/16 09:07:15;;;;;;;2.17;1.33;;;;;;;18.52;39.61;100836.03;4975473;28;98763;-86
2024/01/16 09:09:42;;;;;;;1.35;0.70;;;;;;;18.51;39.25;100834.31;5010016;28;97192;-86
2024/01/16 09:12:08;;;;;;;2.13;0.73;;;;;;;18.52;39.63;100838.69;4970974;28;96747;-87
2024/01/16 09:14:34;;;;;;;1.60;0.52;;;;;;;18.51;39.64;100824.59;4963139;28;96934;-87
2024/01/16 09:16:59;;;;;;;1.58;0.73;;;;;;;18.52;39.58;100828.09;4985758;28;108505;-87
2024/01/16 09:19:24;;;;;;;6.00;0.77;;;;;;;18.52;39.57;100836.03;4988353;28;97013;-86
2024/01/16 09:21:50;;;;;;;2.00;0.82;;;;;;;18.52;39.47;100841.31;4987436;28;96821;-86
2024/01/16 09:24:15;;;;;;;2.15;1.05;;;;;;;18.53;39.33;100840.44;4981286;28;97237;-87
2024/01/16 09:26:41;;;;;;;1.25;0.70;;;;;;;18.53;39.26;100841.28;4969862;28;98015;-87
2024/01/16 09:29:08;;;;;;;1.83;1.00;;;;;;;18.53;39.59;100830.72;4960702;28;128057;-87
2024/01/16 09:31:34;;;;;;;1.73;1.17;;;;;;;18.54;39.56;100832.47;4975145;28;96771;-87
2024/01/16 09:33:59;;;;;;;1.67;0.88;;;;;;;18.53;39.39;100827.22;4963706;28;96923;-87
2024/01/16 09:36:24;;;;;;;3.22;1.13;;;;;;;18.52;39.40;100829.00;4984098;28;125522;-86
2024/01/16 09:38:50;;;;;;;2.67;0.73;;;;;;;18.53;39.24;100822.81;4988186;28;97809;-86
2024/01/16 09:41:15;;;;;;;3.60;0.63;;;;;;;18.52;39.49;100813.16;5000902;28;97104;-87
2024/01/16 09:43:41;;;;;;;1.90;1.40;;;;;;;18.53;39.32;100821.94;4961389;28;97218;-87
2024/01/16 09:46:07;;;;;;;1.10;0.65;;;;;;;18.53;39.45;100824.59;4971241;28;99348;-87
2024/01/16 09:48:32;;;;;;;2.28;1.05;;;;;;;18.54;39.38;100819.28;4993299;28;96807;-86
2024/01/16 09:50:58;;;;;;;2.30;0.63;;;;;;;18.54;39.61;100828.94;4980068;28;96897;-88
2024/01/16 09:53:23;;;;;;;1.92;1.00;;;;;;;18.55;39.30;100835.97;4979590;28;99294;-87
2024/01/16 09:55:50;;;;;;;1.58;0.98;;;;;;;18.54;39.52;100824.56;4992125;28;97392;-87
2024/01/16 09:58:20;;;;;;;1.63;1.00;;;;;;;18.55;39.54;100833.34;5006083;28;97730;-86
2024/01/16 10:00:46;;;;;;;2.25;0.73;;;;;;;18.55;39.40;100830.69;4982276;28;96870;-87
2024/01/16 10:03:14;;;;;;;1.67;1.25;;;;;;;18.56;39.33;100827.16;4986946;28;96876;-86
2024/01/16 10:05:42;;;;;;;2.00;1.20;;;;;;;18.56;39.40;100822.75;4971749;28;97527;-86
2024/01/16 10:08:08;;;;;;;5.50;1.45;;;;;;;18.55;39.38;100822.78;4974784;28;97776;-86
2024/01/16 10:10:34;;;;;;;2.10;1.35;;;;;;;18.55;39.56;100815.72;4998210;28;96685;-86
2024/01/16 10:13:00;;;;;;;2.70;1.13;;;;;;;18.56;39.37;100809.53;4976069;28;96705;-87
2024/01/16 10:15:25;;;;;;;2.40;0.75;;;;;;;18.57;39.47;100803.38;4970547;28;96557;-87
2024/01/16 10:17:51;;;;;;;3.28;1.30;;;;;;;18.57;39.35;100808.66;4985861;28;96736;-85
2024/01/16 10:20:32;;;;;;;2.70;1.35;;;;;;;18.58;39.47;100817.44;5001635;28;96889;-87
2024/01/16 10:22:58;;;;;;;2.25;0.95;;;;;;;18.58;39.47;100809.50;4985550;28;96908;-87
2024/01/16 10:25:24;;;;;;;3.25;1.23;;;;;;;18.58;39.37;100812.16;4980527;28;97135;-86
2024/01/16 10:28:02;;;;;;;1.65;1.10;;;;;;;18.58;39.69;100805.09;4963180;28;99669;-86
2024/01/16 10:30:28;;;;;;;1.10;0.52;;;;;;;18.58;39.46;100801.59;4983389;28;99040;-86
2024/01/16 10:32:53;;;;;;;2.17;0.63;;;;;;;18.58;39.59;100791.88;4991843;28;119040;-87
2024/01/16 10:35:19;;;;;;;2.03;0.90;;;;;;;18.58;39.63;100793.66;4986436;28;99009;-86
2024/01/16 10:37:54;;;;;;;1.95;1.30;;;;;;;18.60;39.68;100797.13;4984290;28;96924;-86
2024/01/16 10:40:22;;;;;;;1.85;0.88;;;;;;;18.59;39.74;100795.38;5000751;28;97000;-85
2024/01/16 10:43:04;;;;;;;2.55;1.02;;;;;;;18.59;39.35;100792.75;4990055;28;96924;-86
2024/01/16 10:45:33;;;;;;;2.53;1.20;;;;;;;18.59;39.46;100791.00;4986618;28;98817;-86
2024/01/16 10:48:06;;;;;;;2.55;0.88;;;;;;;18.58;39.42;100786.59;4993086;28;98437;-87
2024/01/16 10:50:33;;;;;;;3.33;0.70;;;;;;;18.59;39.50;100785.72;5001526;28;97704;-86
2024/01/16 10:53:08;;;;;;;3.58;1.45;;;;;;;18.60;39.67;100786.56;4985371;28;97971;-86
2024/01/16 10:55:58;;;;;;;3.50;0.77;;;;;;;18.59;39.65;100793.63;4999297;28;98782;-86
2024/01/16 10:58:25;;;;;;;1.05;0.82;;;;;;;18.60;39.40;100787.44;4960944;28;97283;-86
2024/01/16 11:00:53;;;;;;;1.85;1.40;;;;;;;18.62;39.54;100795.31;4987921;28;96921;-87
2024/01/16 11:03:22;;;;;;;3.22;0.82;;;;;;;18.61;39.47;100797.09;5002933;28;97115;-87
2024/01/16 11:05:48;;;;;;;2.55;0.82;;;;;;;18.63;39.61;100795.28;4977386;28;96852;-86
2024/01/16 11:08:16;;;;;;;2.88;0.85;;;;;;;18.63;39.66;100794.44;4977405;28;99854;-87
2024/01/16 11:10:47;;;;;;;4.82;1.23;;;;;;;18.63;39.73;100794.44;4980083;28;97250;-87
2024/01/16 11:13:14;;;;;;;2.67;0.75;;;;;;;18.63;39.52;100783.88;5002215;28;97084;-87
2024/01/16 11:15:41;;;;;;;2.92;0.95;;;;;;;18.63;39.73;100783.88;4984624;28;97208;-86
2024/01/16 11:18:08;;;;;;;3.03;1.30;;;;;;;18.63;39.64;100781.22;4984402;28;98257;-86